createdAt,value
2022-08-19T00:00:00.597Z,39.15
2022-08-19T00:01:02.098Z,41.95
2022-08-19T00:02:03.716Z,45.47
2022-08-19T00:03:06.878Z,46.90
2022-08-19T00:04:10.755Z,45.33
2022-08-19T00:05:13.913Z,42.75
2022-08-19T00:06:15.707Z,43.80
2022-08-19T00:07:20.793Z,43.20
2022-08-19T00:08:22.278Z,42.17
2022-08-19T00:09:24.435Z,46.05
2022-08-19T00:10:26.103Z,40.28
2022-08-19T00:11:28.332Z,40.42
2022-08-19T00:12:29.944Z,46.03
2022-08-19T00:13:32.871Z,38.65
2022-08-19T00:14:34.397Z,48.83
2022-08-19T00:15:35.946Z,45.30
2022-08-19T00:16:37.919Z,40.67
2022-08-19T00:17:42.023Z,44.53
2022-08-19T00:18:43.658Z,34.05
2022-08-19T00:19:45.110Z,42.33
2022-08-19T00:20:46.674Z,37.30
2022-08-19T00:21:48.145Z,46.97
2022-08-19T00:22:50.064Z,50.20
2022-08-19T00:23:51.535Z,44.28
2022-08-19T00:24:53.014Z,33.63
2022-08-19T00:25:54.517Z,29.30
2022-08-19T00:26:57.048Z,38.25
2022-08-19T00:27:59.811Z,41.40
2022-08-19T00:29:04.717Z,38.65
2022-08-19T00:30:08.284Z,41.63
2022-08-19T00:31:10.655Z,34.35
2022-08-19T00:32:12.135Z,44.45
2022-08-19T00:33:15.343Z,37.58
2022-08-19T00:34:16.862Z,43.83
2022-08-19T00:35:18.457Z,36.47
2022-08-19T00:36:20.293Z,36.35
2022-08-19T00:37:22.445Z,31.48
2022-08-19T00:38:35.291Z,33.20
2022-08-19T00:39:39.811Z,39.50
2022-08-19T00:40:43.722Z,39.97
2022-08-19T00:41:47.841Z,29.42
2022-08-19T00:42:49.477Z,46.33
2022-08-19T00:44:05.213Z,37.22
2022-08-19T00:45:12.250Z,35.55
2022-08-19T00:46:13.711Z,38.70
2022-08-19T00:47:15.209Z,34.28
2022-08-19T00:48:18.287Z,27.27
2022-08-19T00:49:23.578Z,38.65
2022-08-19T00:50:27.453Z,36.78
2022-08-19T00:51:30.979Z,46.00
2022-08-19T00:52:35.997Z,47.28
2022-08-19T00:53:37.700Z,41.05
2022-08-19T00:54:40.116Z,45.67
2022-08-19T00:55:45.362Z,47.20
2022-08-19T00:56:48.306Z,47.35
2022-08-19T00:57:54.369Z,49.08
2022-08-19T00:58:57.463Z,50.70
2022-08-19T01:00:03.285Z,47.03
2022-08-19T01:01:05.758Z,46.03
2022-08-19T01:02:07.812Z,53.22
2022-08-19T01:03:11.629Z,43.80
2022-08-19T01:04:13.441Z,45.35
2022-08-19T01:05:17.631Z,45.70
2022-08-19T01:06:19.897Z,45.78
2022-08-19T01:07:22.579Z,43.13
2022-08-19T01:08:25.450Z,46.95
2022-08-19T01:09:30.033Z,48.05
2022-08-19T01:10:38.331Z,44.00
2022-08-19T01:11:44.663Z,50.25
2022-08-19T01:12:46.915Z,45.15
2022-08-19T01:13:50.402Z,45.00
2022-08-19T01:14:53.242Z,54.42
2022-08-19T01:16:00.229Z,41.53
2022-08-19T01:17:02.188Z,53.08
2022-08-19T01:18:08.257Z,53.22
2022-08-19T01:19:24.634Z,51.17
2022-08-19T01:20:26.185Z,47.13
2022-08-19T01:21:32.179Z,52.78
2022-08-19T01:22:40.929Z,53.05
2022-08-19T01:23:42.804Z,47.42
2022-08-19T01:24:49.743Z,49.78
2022-08-19T01:25:53.498Z,50.60
2022-08-19T01:26:55.350Z,44.60
2022-08-19T01:27:56.937Z,48.63
2022-08-19T01:29:05.163Z,43.72
2022-08-19T01:30:09.212Z,52.20
2022-08-19T01:31:27.072Z,52.70
2022-08-19T01:32:33.309Z,52.33
2022-08-19T01:33:35.677Z,52.03
2022-08-19T01:34:37.205Z,54.70
2022-08-19T01:35:38.705Z,55.25
2022-08-19T01:36:42.801Z,49.05
2022-08-19T01:37:52.347Z,48.53
2022-08-19T01:38:54.130Z,40.05
2022-08-19T01:39:55.666Z,45.70
2022-08-19T01:40:57.209Z,48.25
2022-08-19T01:41:58.719Z,43.08
2022-08-19T01:43:00.721Z,52.35
2022-08-19T01:44:17.915Z,51.42
2022-08-19T01:45:22.986Z,48.63
2022-08-19T01:46:25.147Z,50.72
2022-08-19T01:47:26.715Z,41.08
2022-08-19T01:48:33.125Z,45.95
2022-08-19T01:49:34.665Z,37.45
2022-08-19T01:50:36.929Z,43.42
2022-08-19T01:51:40.242Z,39.85
2022-08-19T01:52:43.746Z,45.35
2022-08-19T01:53:50.147Z,35.08
2022-08-19T01:54:51.675Z,47.17
2022-08-19T01:55:53.194Z,48.55
2022-08-19T01:57:00.969Z,53.58
2022-08-19T01:58:06.116Z,31.83
2022-08-19T01:59:12.830Z,50.65
2022-08-19T02:00:17.177Z,46.97
2022-08-19T02:01:18.793Z,53.03
2022-08-19T02:02:20.403Z,50.70
2022-08-19T02:03:21.869Z,54.70
2022-08-19T02:04:23.463Z,51.47
2022-08-19T02:05:24.999Z,53.25
2022-08-19T02:06:26.859Z,40.60
2022-08-19T02:07:28.692Z,53.80
2022-08-19T02:08:31.114Z,50.05
2022-08-19T02:09:34.175Z,55.13
2022-08-19T02:10:40.937Z,40.17
2022-08-19T02:11:42.548Z,48.63
2022-08-19T02:12:44.146Z,54.25
2022-08-19T02:13:45.632Z,43.95
2022-08-19T02:14:47.345Z,52.25
2022-08-19T02:15:48.892Z,46.38
2022-08-19T02:16:50.441Z,49.85
2022-08-19T02:17:52.333Z,43.08
2022-08-19T02:18:53.835Z,46.08
2022-08-19T02:19:55.333Z,50.13
2022-08-19T02:20:56.854Z,51.97
2022-08-19T02:21:58.341Z,31.08
2022-08-19T02:22:59.822Z,51.08
2022-08-19T02:24:01.757Z,54.13
2022-08-19T02:25:05.504Z,48.53
2022-08-19T02:26:07.033Z,49.92
2022-08-19T02:27:08.628Z,45.22
2022-08-19T02:28:10.142Z,44.97
2022-08-19T02:29:11.765Z,53.33
2022-08-19T02:30:16.172Z,32.13
2022-08-19T02:31:21.384Z,47.92
2022-08-19T02:32:22.898Z,27.70
2022-08-19T02:33:24.726Z,46.83
2022-08-19T02:34:26.202Z,29.10
2022-08-19T02:35:27.705Z,36.95
2022-08-19T02:36:29.179Z,49.95
2022-08-19T02:37:32.033Z,50.13
2022-08-19T02:38:36.821Z,35.15
2022-08-19T02:39:38.324Z,43.70
2022-08-19T02:40:41.161Z,49.70
2022-08-19T02:41:42.629Z,55.92
2022-08-19T02:42:44.450Z,56.83
2022-08-19T02:44:26.639Z,67.05
2022-08-19T02:45:08.876Z,64.50
2022-08-19T02:46:15.921Z,61.80
2022-08-19T02:47:17.378Z,37.50
2022-08-19T02:48:21.505Z,67.90
2022-08-19T02:49:23.439Z,52.22
2022-08-19T02:50:24.983Z,63.17
2022-08-19T02:51:28.155Z,66.13
2022-08-19T02:52:29.646Z,53.20
2022-08-19T02:53:31.238Z,57.35
2022-08-19T02:54:32.711Z,55.28
2022-08-19T02:55:45.645Z,56.55
2022-08-19T02:56:49.202Z,51.47
2022-08-19T02:57:50.921Z,63.72
2022-08-19T02:58:52.400Z,45.65
2022-08-19T02:59:54.455Z,54.33
2022-08-19T03:00:57.271Z,63.80
2022-08-19T03:01:58.850Z,58.83
2022-08-19T03:03:00.338Z,57.08
2022-08-19T03:04:04.945Z,65.82
2022-08-19T03:05:08.868Z,60.50
2022-08-19T03:06:12.448Z,56.22
2022-08-19T03:07:15.291Z,66.70
2022-08-19T03:08:17.070Z,65.10
2022-08-19T03:09:20.318Z,70.20
2022-08-19T03:10:21.837Z,59.75
2022-08-19T03:11:25.845Z,68.25
2022-08-19T03:12:28.678Z,63.70
2022-08-19T03:13:30.575Z,67.15
2022-08-19T03:14:32.615Z,69.45
2022-08-19T03:15:34.143Z,73.53
2022-08-19T03:16:42.517Z,72.57
2022-08-19T03:17:43.997Z,71.13
2022-08-19T03:18:45.978Z,72.05
2022-08-19T03:19:47.434Z,58.33
2022-08-19T03:20:50.784Z,58.70
2022-08-19T03:21:52.811Z,69.47
2022-08-19T03:22:54.444Z,70.15
2022-08-19T03:23:56.740Z,64.60
2022-08-19T03:24:58.361Z,65.60
2022-08-19T03:26:16.073Z,64.53
2022-08-19T03:27:18.589Z,56.30
2022-08-19T03:28:21.651Z,62.60
2022-08-19T03:29:30.563Z,62.63
2022-08-19T03:30:32.510Z,58.13
2022-08-19T03:31:45.480Z,49.92
2022-08-19T03:32:57.256Z,55.05
2022-08-19T03:33:58.911Z,60.60
2022-08-19T03:35:00.706Z,65.05
2022-08-19T03:36:08.465Z,60.33
2022-08-19T03:37:12.642Z,63.30
2022-08-19T03:38:14.204Z,63.83
2022-08-19T03:39:16.476Z,67.43
2022-08-19T03:40:18.190Z,58.55
2022-08-19T03:41:22.628Z,60.10
2022-08-19T03:42:38.793Z,70.88
2022-08-19T03:43:48.489Z,54.58
2022-08-19T03:44:50.031Z,51.72
2022-08-19T03:46:01.178Z,61.65
2022-08-19T03:47:03.057Z,63.30
2022-08-19T03:48:04.808Z,65.10
2022-08-19T03:49:06.294Z,46.90
2022-08-19T03:50:08.461Z,59.90
2022-08-19T03:51:17.781Z,61.85
2022-08-19T03:52:32.182Z,65.50
2022-08-19T03:53:34.815Z,56.65
2022-08-19T03:54:36.914Z,59.60
2022-08-19T03:55:41.076Z,48.85
2022-08-19T03:56:44.510Z,60.28
2022-08-19T03:57:45.992Z,66.20
2022-08-19T03:58:49.350Z,58.55
2022-08-19T03:59:50.803Z,66.65
2022-08-19T04:00:52.345Z,68.93
2022-08-19T04:01:55.153Z,77.43
2022-08-19T04:03:00.303Z,38.50
2022-08-19T04:04:03.426Z,63.88
2022-08-19T04:05:07.585Z,70.85
2022-08-19T04:06:12.782Z,72.00
2022-08-19T04:07:15.500Z,50.88
2022-08-19T04:08:17.235Z,59.83
2022-08-19T04:09:20.059Z,48.42
2022-08-19T04:10:21.575Z,42.22
2022-08-19T04:11:42.780Z,70.78
2022-08-19T04:12:45.833Z,64.30
2022-08-19T04:13:49.206Z,62.67
2022-08-19T04:14:50.734Z,51.40
2022-08-19T04:15:52.230Z,54.30
2022-08-19T04:16:54.199Z,51.00
2022-08-19T04:17:55.655Z,49.00
2022-08-19T04:19:00.755Z,61.97
2022-08-19T04:20:02.264Z,70.65
2022-08-19T04:21:15.674Z,57.38
2022-08-19T04:22:17.155Z,48.38
2022-08-19T04:23:18.942Z,62.38
2022-08-19T04:24:21.768Z,65.78
2022-08-19T04:25:23.257Z,72.68
2022-08-19T04:26:27.447Z,65.63
2022-08-19T04:27:28.939Z,75.32
2022-08-19T04:28:30.516Z,37.70
2022-08-19T04:29:34.638Z,36.53
2022-08-19T04:30:41.034Z,50.75
2022-08-19T04:31:44.211Z,54.22
2022-08-19T04:32:45.741Z,56.95
2022-08-19T04:33:47.636Z,67.90
2022-08-19T04:35:02.764Z,58.40
2022-08-19T04:36:17.749Z,54.15
2022-08-19T04:37:22.633Z,63.40
2022-08-19T04:38:24.261Z,68.43
2022-08-19T04:39:27.956Z,63.75
2022-08-19T04:40:29.487Z,74.80
2022-08-19T04:41:31.040Z,73.70
2022-08-19T04:42:32.528Z,67.15
2022-08-19T04:43:36.075Z,68.25
2022-08-19T04:44:44.993Z,63.10
2022-08-19T04:45:48.548Z,69.97
2022-08-19T04:46:51.990Z,62.70
2022-08-19T04:47:58.360Z,73.75
2022-08-19T04:49:10.429Z,67.97
2022-08-19T04:50:15.420Z,66.55
2022-08-19T04:51:16.937Z,75.10
2022-08-19T04:52:18.414Z,65.32
2022-08-19T04:53:19.917Z,63.58
2022-08-19T04:54:37.916Z,64.45
2022-08-19T04:55:41.826Z,60.05
2022-08-19T04:56:43.348Z,59.75
2022-08-19T04:57:44.844Z,64.47
2022-08-19T04:58:46.427Z,60.85
2022-08-19T04:59:49.790Z,68.20
2022-08-19T05:00:51.783Z,64.20
2022-08-19T05:01:53.335Z,63.60
2022-08-19T05:02:54.993Z,49.97
2022-08-19T05:03:57.306Z,68.18
2022-08-19T05:04:59.813Z,62.78
2022-08-19T05:06:06.198Z,50.28
2022-08-19T05:07:08.989Z,63.42
2022-08-19T05:08:10.536Z,72.55
2022-08-19T05:09:16.620Z,65.90
2022-08-19T05:10:18.150Z,70.97
2022-08-19T05:11:26.305Z,60.72
2022-08-19T05:12:29.367Z,65.38
2022-08-19T05:13:31.009Z,66.90
2022-08-19T05:14:32.555Z,79.53
2022-08-19T05:15:35.387Z,73.75
2022-08-19T05:16:36.880Z,76.30
2022-08-19T05:17:39.283Z,83.65
2022-08-19T05:18:41.307Z,72.63
2022-08-19T05:19:42.976Z,74.85
2022-08-19T05:20:44.495Z,75.60
2022-08-19T05:21:46.478Z,73.47
2022-08-19T05:22:48.661Z,78.63
2022-08-19T05:23:50.293Z,83.80
2022-08-19T05:25:11.674Z,86.70
2022-08-19T05:26:13.303Z,74.80
2022-08-19T05:27:14.789Z,63.97
2022-08-19T05:28:16.285Z,86.03
2022-08-19T05:29:20.945Z,80.32
2022-08-19T05:30:42.139Z,83.05
2022-08-19T05:31:48.386Z,59.22
2022-08-19T05:32:49.874Z,64.45
2022-08-19T05:33:55.439Z,74.50
2022-08-19T05:34:57.212Z,61.90
2022-08-19T05:35:58.702Z,82.95
2022-08-19T05:37:02.661Z,42.83
2022-08-19T05:38:04.779Z,69.07
2022-08-19T05:39:07.081Z,89.32
2022-08-19T05:40:09.891Z,80.60
2022-08-19T05:41:13.260Z,66.95
2022-08-19T05:42:14.744Z,67.43
2022-08-19T05:43:16.736Z,85.35
2022-08-19T05:44:18.297Z,78.78
2022-08-19T05:45:20.026Z,85.80
2022-08-19T05:46:27.718Z,97.15
2022-08-19T05:47:30.824Z,86.93
2022-08-19T05:48:32.707Z,96.10
2022-08-19T05:49:35.127Z,84.97
2022-08-19T05:50:36.921Z,93.95
2022-08-19T05:51:38.416Z,105.88
2022-08-19T05:52:43.826Z,108.55
2022-08-19T05:53:52.045Z,116.70
2022-08-19T05:54:54.226Z,87.80
2022-08-19T05:55:55.724Z,102.47
2022-08-19T05:56:59.625Z,103.75
2022-08-19T05:58:01.104Z,89.40
2022-08-19T05:59:02.591Z,89.88
2022-08-19T06:00:05.434Z,96.80
2022-08-19T06:01:12.123Z,61.90
2022-08-19T06:02:13.666Z,59.15
2022-08-19T06:03:16.509Z,89.45
2022-08-19T06:04:19.337Z,74.18
2022-08-19T06:05:20.941Z,89.75
2022-08-19T06:06:22.443Z,62.10
2022-08-19T06:07:24.134Z,96.47
2022-08-19T06:08:34.252Z,60.13
2022-08-19T06:09:36.379Z,55.72
2022-08-19T06:10:37.894Z,67.90
2022-08-19T06:11:41.574Z,62.47
2022-08-19T06:12:43.031Z,64.85
2022-08-19T06:13:45.496Z,55.55
2022-08-19T06:14:47.013Z,92.85
2022-08-19T06:15:57.492Z,89.53
2022-08-19T06:17:01.712Z,84.65
2022-08-19T06:18:05.285Z,101.78
2022-08-19T06:19:10.288Z,107.55
2022-08-19T06:20:14.946Z,103.18
2022-08-19T06:21:16.497Z,111.50
2022-08-19T06:22:18.142Z,104.88
2022-08-19T06:23:19.770Z,56.70
2022-08-19T06:24:28.320Z,90.35
2022-08-19T06:25:30.597Z,93.57
2022-08-19T06:26:32.213Z,101.22
2022-08-19T06:27:33.934Z,88.45
2022-08-19T06:28:35.499Z,106.38
2022-08-19T06:29:36.969Z,91.95
2022-08-19T06:30:38.560Z,74.85
2022-08-19T06:31:42.981Z,49.92
2022-08-19T06:32:44.612Z,61.50
2022-08-19T06:33:46.448Z,93.88
2022-08-19T06:34:49.381Z,110.97
2022-08-19T06:35:50.903Z,120.00
2022-08-19T06:36:53.147Z,73.85
2022-08-19T06:37:54.743Z,84.57
2022-08-19T06:38:57.212Z,139.77
2022-08-19T06:39:58.868Z,134.48
2022-08-19T06:41:07.383Z,148.00
2022-08-19T06:42:10.996Z,54.60
2022-08-19T06:43:12.716Z,58.22
2022-08-19T06:44:16.821Z,88.07
2022-08-19T06:45:18.663Z,49.30
2022-08-19T06:46:26.868Z,58.83
2022-08-19T06:47:28.898Z,81.38
2022-08-19T06:48:31.077Z,104.40
2022-08-19T06:49:35.221Z,124.47
2022-08-19T06:50:39.762Z,51.60
2022-08-19T06:51:43.821Z,121.00
2022-08-19T06:52:45.816Z,124.50
2022-08-19T06:53:48.049Z,91.80
2022-08-19T06:54:56.547Z,92.10
2022-08-19T06:55:58.418Z,104.38
2022-08-19T06:57:01.135Z,57.60
2022-08-19T06:58:03.119Z,94.07
2022-08-19T06:59:07.148Z,121.47
2022-08-19T07:00:12.818Z,134.63
2022-08-19T07:01:14.805Z,102.15
2022-08-19T07:03:22.825Z,82.72
2022-08-19T07:04:26.306Z,60.75
2022-08-19T07:05:27.838Z,60.10
2022-08-19T07:06:43.618Z,103.68
2022-08-19T07:07:45.990Z,97.75
2022-08-19T07:08:49.363Z,88.05
2022-08-19T07:09:59.974Z,57.92
2022-08-19T07:11:09.436Z,60.92
2022-08-19T07:12:14.537Z,117.20
2022-08-19T07:13:16.112Z,116.68
2022-08-19T07:14:20.343Z,63.70
2022-08-19T07:15:21.973Z,57.88
2022-08-19T07:16:29.216Z,83.88
2022-08-19T07:17:31.199Z,61.63
2022-08-19T07:18:32.961Z,84.90
2022-08-19T07:19:34.745Z,103.95
2022-08-19T07:20:37.810Z,98.45
2022-08-19T07:21:42.421Z,98.10
2022-08-19T07:22:43.909Z,56.30
2022-08-19T07:23:46.384Z,79.45
2022-08-19T07:24:51.473Z,76.45
2022-08-19T07:25:53.462Z,74.47
2022-08-19T07:26:56.975Z,69.13
2022-08-19T07:27:58.727Z,77.35
2022-08-19T07:29:03.224Z,85.63
2022-08-19T07:30:06.527Z,52.80
2022-08-19T07:31:08.402Z,84.57
2022-08-19T07:32:11.599Z,73.82
2022-08-19T07:33:15.160Z,68.13
2022-08-19T07:34:17.306Z,63.95
2022-08-19T07:35:19.151Z,65.80
2022-08-19T07:36:23.962Z,53.28
2022-08-19T07:37:32.851Z,54.85
2022-08-19T07:38:35.252Z,63.38
2022-08-19T07:39:38.157Z,62.20
2022-08-19T07:40:39.835Z,73.25
2022-08-19T07:41:41.895Z,56.33
2022-08-19T07:42:43.485Z,42.67
2022-08-19T07:43:45.312Z,53.80
2022-08-19T07:44:50.461Z,56.60
2022-08-19T07:45:52.480Z,39.78
2022-08-19T07:46:57.725Z,67.50
2022-08-19T07:47:59.261Z,50.38
2022-08-19T07:49:00.809Z,53.45
2022-08-19T07:50:02.412Z,50.58
2022-08-19T07:51:06.227Z,68.38
2022-08-19T07:52:09.748Z,39.47
2022-08-19T07:53:12.632Z,40.40
2022-08-19T07:54:14.257Z,47.83
2022-08-19T07:55:40.513Z,47.78
2022-08-19T07:56:39.039Z,41.22
2022-08-19T07:57:40.586Z,45.50
2022-08-19T07:58:45.299Z,68.40
2022-08-19T07:59:46.863Z,80.35
2022-08-19T08:00:51.345Z,65.65
2022-08-19T08:01:52.995Z,53.25
2022-08-19T08:02:55.694Z,43.80
2022-08-19T08:03:58.816Z,60.90
2022-08-19T08:05:00.302Z,55.28
2022-08-19T08:06:01.805Z,38.38
2022-08-19T08:07:03.833Z,52.75
2022-08-19T08:08:05.466Z,35.05
2022-08-19T08:09:08.977Z,42.35
2022-08-19T08:10:21.231Z,24.88
2022-08-19T08:11:24.160Z,45.10
2022-08-19T08:12:34.607Z,31.45
2022-08-19T08:13:36.726Z,45.35
2022-08-19T08:14:44.857Z,53.55
2022-08-19T08:15:48.559Z,41.63
2022-08-19T08:16:53.932Z,41.20
2022-08-19T08:17:55.401Z,44.53
2022-08-19T08:18:56.873Z,48.88
2022-08-19T08:19:59.245Z,38.67
2022-08-19T08:21:00.927Z,25.13
2022-08-19T08:22:03.060Z,36.90
2022-08-19T08:23:04.564Z,43.15
2022-08-19T08:24:06.188Z,40.17
2022-08-19T08:25:12.079Z,32.00
2022-08-19T08:26:16.104Z,20.33
2022-08-19T08:27:17.827Z,45.20
2022-08-19T08:28:20.174Z,31.65
2022-08-19T08:29:21.657Z,45.15
2022-08-19T08:30:26.057Z,26.73
2022-08-19T08:31:32.670Z,35.30
2022-08-19T08:32:34.864Z,22.90
2022-08-19T08:33:36.365Z,21.58
2022-08-19T08:34:39.062Z,24.77
2022-08-19T08:35:42.162Z,34.85
2022-08-19T08:36:45.624Z,53.95
2022-08-19T08:37:50.693Z,46.08
2022-08-19T08:39:59.294Z,23.13
2022-08-19T08:41:10.360Z,29.73
2022-08-19T08:42:19.984Z,55.65
2022-08-19T08:43:30.685Z,37.03
2022-08-19T08:44:48.405Z,42.78
2022-08-19T08:45:56.421Z,40.10
2022-08-19T08:47:02.672Z,38.13
2022-08-19T08:48:22.407Z,31.92
2022-08-19T08:50:37.227Z,38.85
2022-08-19T08:52:54.373Z,35.00
2022-08-19T08:53:57.124Z,37.80
2022-08-19T08:55:00.775Z,38.75
2022-08-19T08:56:06.893Z,40.90
2022-08-19T08:57:13.615Z,52.40
2022-08-19T08:58:20.507Z,32.90
2022-08-19T08:59:27.477Z,49.42
2022-08-19T09:00:31.458Z,38.95
2022-08-19T09:01:33.191Z,36.55
2022-08-19T09:02:34.849Z,32.22
2022-08-19T09:03:38.721Z,28.45
2022-08-19T09:04:40.283Z,37.05
2022-08-19T09:05:53.786Z,49.05
2022-08-19T09:07:18.735Z,38.17
2022-08-19T09:08:44.182Z,32.38
2022-08-19T09:09:49.555Z,42.38
2022-08-19T09:10:55.365Z,48.47
2022-08-19T09:12:07.637Z,34.60
2022-08-19T09:13:21.947Z,48.95
2022-08-19T09:14:51.798Z,42.78
2022-08-19T09:15:57.464Z,45.40
2022-08-19T09:17:00.024Z,49.10
2022-08-19T09:18:02.627Z,40.10
2022-08-19T09:19:06.478Z,51.80
2022-08-19T09:20:21.596Z,52.67
2022-08-19T09:21:30.314Z,51.10
2022-08-19T09:22:35.916Z,36.58
2022-08-19T09:23:37.923Z,39.67
2022-08-19T09:24:39.416Z,46.17
2022-08-19T09:25:40.929Z,47.97
2022-08-19T09:26:48.437Z,51.00
2022-08-19T09:28:03.011Z,45.53
2022-08-19T09:29:08.104Z,32.28
2022-08-19T09:30:14.042Z,36.78
2022-08-19T09:31:17.673Z,45.72
2022-08-19T09:32:26.665Z,47.30
2022-08-19T09:33:28.602Z,45.65
2022-08-19T09:34:32.689Z,37.00
2022-08-19T09:35:49.866Z,41.45
2022-08-19T09:36:54.825Z,48.88
2022-08-19T09:37:57.573Z,45.33
2022-08-19T09:39:01.158Z,31.30
2022-08-19T09:40:04.737Z,44.28
2022-08-19T09:41:07.728Z,41.95
2022-08-19T09:42:16.452Z,48.33
2022-08-19T09:43:33.965Z,45.60
2022-08-19T09:44:46.817Z,48.45
2022-08-19T09:45:48.306Z,47.00
2022-08-19T09:46:50.237Z,46.65
2022-08-19T09:47:54.350Z,43.03
2022-08-19T09:49:06.190Z,48.63
2022-08-19T09:50:11.355Z,38.03
2022-08-19T09:51:21.452Z,35.67
2022-08-19T09:52:24.831Z,33.17
2022-08-19T09:53:27.443Z,40.33
2022-08-19T09:54:30.210Z,44.83
2022-08-19T09:55:32.519Z,43.95
2022-08-19T09:56:34.485Z,40.30
2022-08-19T09:57:36.440Z,45.75
2022-08-19T09:58:40.008Z,30.90
2022-08-19T09:59:41.464Z,42.80
2022-08-19T10:00:42.938Z,38.15
2022-08-19T10:01:44.500Z,43.65
2022-08-19T10:02:47.503Z,46.33
2022-08-19T10:03:52.320Z,43.75
2022-08-19T10:04:53.778Z,41.90
2022-08-19T10:05:56.422Z,43.55
2022-08-19T10:06:57.885Z,55.55
2022-08-19T10:07:59.363Z,51.70
2022-08-19T10:09:03.124Z,49.15
2022-08-19T10:10:11.112Z,57.35
2022-08-19T10:11:28.710Z,57.78
2022-08-19T10:12:35.329Z,41.33
2022-08-19T10:13:39.364Z,50.78
2022-08-19T10:14:40.830Z,50.40
2022-08-19T10:15:47.380Z,40.17
2022-08-19T10:16:50.010Z,44.97
2022-08-19T10:17:55.187Z,51.53
2022-08-19T10:18:59.092Z,53.85
2022-08-19T10:20:01.020Z,42.33
2022-08-19T10:21:06.801Z,39.83
2022-08-19T10:22:10.093Z,45.80
2022-08-19T10:23:14.685Z,50.70
2022-08-19T10:24:17.203Z,54.60
2022-08-19T10:25:20.094Z,54.22
2022-08-19T10:26:24.473Z,51.38
2022-08-19T10:27:28.154Z,46.53
2022-08-19T10:28:34.701Z,47.33
2022-08-19T10:29:46.555Z,55.00
2022-08-19T10:30:48.137Z,38.53
2022-08-19T10:32:00.521Z,47.47
2022-08-19T10:33:11.007Z,50.40
2022-08-19T10:34:27.133Z,55.13
2022-08-19T10:35:29.640Z,37.10
2022-08-19T10:36:32.861Z,27.70
2022-08-19T10:37:38.135Z,45.10
2022-08-19T10:39:00.589Z,48.13
2022-08-19T10:40:02.560Z,52.10
2022-08-19T10:41:12.438Z,47.20
2022-08-19T10:42:14.153Z,48.38
2022-08-19T10:43:15.864Z,31.98
2022-08-19T10:44:17.948Z,30.33
2022-08-19T10:45:20.745Z,30.30
2022-08-19T10:46:24.737Z,40.50
2022-08-19T10:47:31.529Z,42.72
2022-08-19T10:48:33.491Z,43.78
2022-08-19T10:49:35.017Z,46.47
2022-08-19T10:50:37.521Z,36.17
2022-08-19T10:51:45.810Z,35.15
2022-08-19T10:52:50.913Z,44.00
2022-08-19T10:53:53.062Z,39.47
2022-08-19T10:54:54.750Z,40.85
2022-08-19T10:55:56.219Z,45.45
2022-08-19T10:56:57.794Z,40.90
2022-08-19T10:58:02.498Z,28.02
2022-08-19T10:59:07.679Z,40.40
2022-08-19T11:00:10.739Z,32.80
2022-08-19T11:01:13.591Z,37.90
2022-08-19T11:02:15.058Z,48.97
2022-08-19T11:03:16.675Z,47.47
2022-08-19T11:04:19.140Z,31.45
2022-08-19T11:05:21.121Z,56.25
2022-08-19T11:06:25.904Z,53.55
2022-08-19T11:07:27.424Z,69.05
2022-08-19T11:08:29.160Z,60.30
2022-08-19T11:09:34.291Z,44.55
2022-08-19T11:10:36.079Z,67.20
2022-08-19T11:11:39.378Z,52.97
2022-08-19T11:12:41.639Z,52.70
2022-08-19T11:13:44.046Z,55.63
2022-08-19T11:14:45.513Z,55.80
2022-08-19T11:15:46.969Z,26.10
2022-08-19T11:16:51.154Z,50.40
2022-08-19T11:17:52.795Z,61.70
2022-08-19T11:18:57.545Z,63.60
2022-08-19T11:19:59.081Z,72.85
2022-08-19T11:21:07.619Z,62.63
2022-08-19T11:22:09.952Z,53.17
2022-08-19T11:23:11.877Z,59.03
2022-08-19T11:24:16.512Z,57.95
2022-08-19T11:25:18.251Z,70.32
2022-08-19T11:26:20.859Z,72.15
2022-08-19T11:27:22.306Z,61.20
2022-08-19T11:28:23.779Z,72.53
2022-08-19T11:29:25.861Z,74.13
2022-08-19T11:30:27.349Z,66.32
2022-08-19T11:31:31.558Z,56.13
2022-08-19T11:32:34.517Z,57.08
2022-08-19T11:33:36.003Z,63.33
2022-08-19T11:34:38.214Z,60.70
2022-08-19T11:35:40.603Z,65.93
2022-08-19T11:36:44.479Z,70.10
2022-08-19T11:37:45.933Z,71.95
2022-08-19T11:38:47.870Z,67.18
2022-08-19T11:39:53.459Z,72.13
2022-08-19T11:40:59.165Z,61.83
2022-08-19T11:42:03.425Z,68.70
2022-08-19T11:43:04.974Z,71.25
2022-08-19T11:44:07.713Z,67.85
2022-08-19T11:45:10.044Z,76.70
2022-08-19T11:46:14.235Z,64.72
2022-08-19T11:47:15.713Z,71.03
2022-08-19T11:48:18.537Z,64.25
2022-08-19T11:49:20.950Z,61.33
2022-08-19T11:50:22.778Z,66.38
2022-08-19T11:51:25.547Z,61.40
2022-08-19T11:52:27.085Z,64.03
2022-08-19T11:53:30.808Z,73.82
2022-08-19T11:54:32.286Z,66.68
2022-08-19T11:55:33.814Z,73.20
2022-08-19T11:56:35.616Z,25.15
2022-08-19T11:57:37.098Z,71.70
2022-08-19T11:58:39.809Z,66.80
2022-08-19T11:59:41.304Z,65.53
2022-08-19T12:00:43.450Z,57.28
2022-08-19T12:01:44.971Z,74.47
2022-08-19T12:02:46.538Z,70.47
2022-08-19T12:03:51.475Z,68.63
2022-08-19T12:04:52.969Z,63.38
2022-08-19T12:05:54.516Z,63.88
2022-08-19T12:06:55.988Z,69.20
2022-08-19T12:07:57.475Z,70.28
2022-08-19T12:09:00.905Z,66.40
2022-08-19T12:10:03.626Z,69.35
2022-08-19T12:11:05.505Z,67.13
2022-08-19T12:12:07.604Z,69.82
2022-08-19T12:13:09.871Z,62.97
2022-08-19T12:14:14.547Z,55.10
2022-08-19T12:15:16.593Z,65.28
2022-08-19T12:16:21.401Z,71.60
2022-08-19T12:17:23.191Z,64.10
2022-08-19T12:18:24.799Z,62.65
2022-08-19T12:19:27.613Z,65.65
2022-08-19T12:20:29.117Z,53.33
2022-08-19T12:21:33.222Z,63.90
2022-08-19T12:22:34.694Z,61.40
2022-08-19T12:23:36.179Z,51.03
2022-08-19T12:24:37.661Z,65.50
2022-08-19T12:25:45.701Z,63.80
2022-08-19T12:26:53.285Z,58.92
2022-08-19T12:27:57.626Z,70.13
2022-08-19T12:29:00.097Z,53.13
2022-08-19T12:30:01.770Z,42.13
2022-08-19T12:31:05.686Z,54.25
2022-08-19T12:32:07.185Z,59.53
2022-08-19T12:33:11.927Z,35.63
2022-08-19T12:34:13.458Z,48.83
2022-08-19T12:35:16.424Z,52.78
2022-08-19T12:36:17.945Z,54.28
2022-08-19T12:37:19.430Z,44.03
2022-08-19T12:38:21.157Z,40.58
2022-08-19T12:39:22.650Z,33.20
2022-08-19T12:40:26.231Z,25.15
2022-08-19T12:41:28.197Z,25.95
2022-08-19T12:42:29.691Z,28.73
2022-08-19T12:43:31.197Z,30.60
2022-08-19T12:44:33.669Z,18.70
2022-08-19T12:45:35.870Z,36.30
2022-08-19T12:46:38.937Z,42.83
2022-08-19T12:47:41.653Z,46.53
2022-08-19T12:48:47.375Z,46.85
2022-08-19T12:49:55.536Z,48.15
2022-08-19T12:50:58.702Z,55.85
2022-08-19T12:52:00.779Z,44.75
2022-08-19T12:53:02.239Z,51.33
2022-08-19T12:54:03.998Z,42.28
2022-08-19T12:55:07.414Z,42.38
2022-08-19T12:56:12.385Z,37.05
2022-08-19T12:57:14.181Z,43.03
2022-08-19T12:58:15.659Z,45.88
2022-08-19T12:59:17.143Z,47.63
2022-08-19T13:00:21.603Z,38.83
2022-08-19T13:01:23.518Z,41.38
2022-08-19T13:02:25.050Z,56.05
2022-08-19T13:03:26.675Z,49.65
2022-08-19T13:04:28.134Z,51.35
2022-08-19T13:05:32.321Z,46.75
2022-08-19T13:06:35.135Z,58.05
2022-08-19T13:07:36.953Z,49.95
2022-08-19T13:08:39.274Z,32.83
2022-08-19T13:09:41.035Z,31.45
2022-08-19T13:10:42.512Z,42.03
2022-08-19T13:11:44.041Z,29.70
2022-08-19T13:12:47.815Z,19.90
2022-08-19T13:13:50.524Z,21.23
2022-08-19T13:14:52.030Z,18.40
2022-08-19T13:15:53.527Z,22.88
2022-08-19T13:16:54.998Z,11.10
2022-08-19T13:17:56.963Z,18.08
2022-08-19T13:18:58.924Z,16.73
2022-08-19T13:20:00.504Z,22.77
2022-08-19T13:21:03.843Z,19.73
2022-08-19T13:22:13.224Z,19.55
2022-08-19T13:24:18.789Z,24.45
2022-08-19T13:25:20.566Z,22.20
2022-08-19T13:26:22.513Z,22.85
2022-08-19T13:27:23.962Z,29.42
2022-08-19T13:28:29.109Z,27.15
2022-08-19T13:29:30.979Z,27.13
2022-08-19T13:30:32.928Z,27.63
2022-08-19T13:31:36.347Z,28.02
2022-08-19T13:32:37.835Z,28.00
2022-08-19T13:33:39.290Z,26.25
2022-08-19T13:34:40.774Z,28.67
2022-08-19T13:35:46.105Z,28.75
2022-08-19T13:36:47.633Z,29.08
2022-08-19T13:37:50.512Z,33.50
2022-08-19T13:38:52.010Z,30.70
2022-08-19T13:39:53.578Z,30.35
2022-08-19T13:40:56.075Z,27.95
2022-08-19T13:41:57.559Z,29.80
2022-08-19T13:42:59.025Z,30.60
2022-08-19T13:44:00.630Z,26.15
2022-08-19T13:45:02.121Z,23.75
2022-08-19T13:46:09.907Z,24.80